sensor_id;sensor_type;location;lat;lon;timestamp;temperature;humidity
16744;DHT22;71724;-33.900;151.182;2023-12-14T00:00:08;30.70;52.40
16744;DHT22;71724;-33.900;151.182;2023-12-14T00:02:35;30.80;51.70
16744;DHT22;71724;-33.900;151.182;2023-12-14T00:05:03;30.80;50.00
16744;DHT22;71724;-33.900;151.182;2023-12-14T00:07:30;30.90;50.60
16744;DHT22;71724;-33.900;151.182;2023-12-14T00:09:57;31.00;50.50
16744;DHT22;71724;-33.900;151.182;2023-12-14T00:12:25;31.20;50.50
16744;DHT22;71724;-33.900;151.182;2023-12-14T00:14:52;31.30;50.40
16744;DHT22;71724;-33.900;151.182;2023-12-14T00:17:20;31.30;49.60
16744;DHT22;71724;-33.900;151.182;2023-12-14T00:19:47;31.50;49.60
16744;DHT22;71724;-33.900;151.182;2023-12-14T00:22:15;31.60;49.90
16744;DHT22;71724;-33.900;151.182;2023-12-14T00:24:42;31.70;48.10
16744;DHT22;71724;-33.900;151.182;2023-12-14T00:27:09;31.80;49.10
16744;DHT22;71724;-33.900;151.182;2023-12-14T00:29:37;31.90;48.90
16744;DHT22;71724;-33.900;151.182;2023-12-14T00:32:04;32.00;49.50
16744;DHT22;71724;-33.900;151.182;2023-12-14T00:34:32;32.10;49.40
16744;DHT22;71724;-33.900;151.182;2023-12-14T00:36:59;32.30;48.70
16744;DHT22;71724;-33.900;151.182;2023-12-14T00:39:27;32.40;49.10
16744;DHT22;71724;-33.900;151.182;2023-12-14T00:41:55;32.40;48.90
16744;DHT22;71724;-33.900;151.182;2023-12-14T00:44:22;32.50;48.40
16744;DHT22;71724;-33.900;151.182;2023-12-14T00:46:50;32.70;48.30
16744;DHT22;71724;-33.900;151.182;2023-12-14T00:49:17;32.80;48.00
16744;DHT22;71724;-33.900;151.182;2023-12-14T00:51:46;32.80;47.50
16744;DHT22;71724;-33.900;151.182;2023-12-14T00:54:13;32.90;47.90
16744;DHT22;71724;-33.900;151.182;2023-12-14T00:56:40;33.00;47.50
16744;DHT22;71724;-33.900;151.182;2023-12-14T00:59:08;33.20;47.60
16744;DHT22;71724;-33.900;151.182;2023-12-14T01:01:37;33.30;47.20
16744;DHT22;71724;-33.900;151.182;2023-12-14T01:04:05;33.30;46.70
16744;DHT22;71724;-33.900;151.182;2023-12-14T01:06:32;33.40;46.40
16744;DHT22;71724;-33.900;151.182;2023-12-14T01:08:59;33.50;45.90
16744;DHT22;71724;-33.900;151.182;2023-12-14T01:11:30;33.60;45.60
16744;DHT22;71724;-33.900;151.182;2023-12-14T01:13:58;33.70;44.60
16744;DHT22;71724;-33.900;151.182;2023-12-14T01:16:26;33.70;45.30
16744;DHT22;71724;-33.900;151.182;2023-12-14T01:18:54;33.70;45.00
16744;DHT22;71724;-33.900;151.182;2023-12-14T01:21:21;33.80;44.10
16744;DHT22;71724;-33.900;151.182;2023-12-14T01:23:48;33.80;43.80
16744;DHT22;71724;-33.900;151.182;2023-12-14T01:26:16;33.90;43.70
16744;DHT22;71724;-33.900;151.182;2023-12-14T01:28:44;34.00;43.10
16744;DHT22;71724;-33.900;151.182;2023-12-14T01:31:12;34.10;42.60
16744;DHT22;71724;-33.900;151.182;2023-12-14T01:33:39;34.20;42.50
16744;DHT22;71724;-33.900;151.182;2023-12-14T01:36:07;34.30;42.40
16744;DHT22;71724;-33.900;151.182;2023-12-14T01:38:34;34.30;42.40
16744;DHT22;71724;-33.900;151.182;2023-12-14T01:41:01;34.30;41.00
16744;DHT22;71724;-33.900;151.182;2023-12-14T01:43:29;34.40;40.90
16744;DHT22;71724;-33.900;151.182;2023-12-14T01:45:56;34.40;41.60
16744;DHT22;71724;-33.900;151.182;2023-12-14T01:48:23;34.50;40.40
16744;DHT22;71724;-33.900;151.182;2023-12-14T01:50:52;34.60;40.90
16744;DHT22;71724;-33.900;151.182;2023-12-14T01:53:21;34.70;41.60
16744;DHT22;71724;-33.900;151.182;2023-12-14T01:55:48;34.80;40.70
16744;DHT22;71724;-33.900;151.182;2023-12-14T01:58:18;34.80;40.90
16744;DHT22;71724;-33.900;151.182;2023-12-14T02:03:27;34.90;37.60
16744;DHT22;71724;-33.900;151.182;2023-12-14T02:05:55;35.00;37.60
16744;DHT22;71724;-33.900;151.182;2023-12-14T02:08:28;35.10;37.40
16744;DHT22;71724;-33.900;151.182;2023-12-14T02:11:02;35.10;36.40
16744;DHT22;71724;-33.900;151.182;2023-12-14T02:13:30;35.10;36.80
16744;DHT22;71724;-33.900;151.182;2023-12-14T02:15:57;35.20;37.50
16744;DHT22;71724;-33.900;151.182;2023-12-14T02:18:24;35.20;36.80
16744;DHT22;71724;-33.900;151.182;2023-12-14T02:20:52;35.20;37.00
16744;DHT22;71724;-33.900;151.182;2023-12-14T02:23:21;35.30;37.20
16744;DHT22;71724;-33.900;151.182;2023-12-14T02:25:50;35.30;37.70
16744;DHT22;71724;-33.900;151.182;2023-12-14T02:28:17;35.30;34.80
16744;DHT22;71724;-33.900;151.182;2023-12-14T02:30:44;35.30;34.60
16744;DHT22;71724;-33.900;151.182;2023-12-14T02:33:13;35.30;34.40
16744;DHT22;71724;-33.900;151.182;2023-12-14T02:35:42;35.40;33.30
16744;DHT22;71724;-33.900;151.182;2023-12-14T02:38:09;35.60;33.10
16744;DHT22;71724;-33.900;151.182;2023-12-14T02:40:36;35.50;29.70
16744;DHT22;71724;-33.900;151.182;2023-12-14T02:43:05;35.60;30.40
16744;DHT22;71724;-33.900;151.182;2023-12-14T02:45:32;35.70;29.60
16744;DHT22;71724;-33.900;151.182;2023-12-14T02:48:00;35.80;29.80
16744;DHT22;71724;-33.900;151.182;2023-12-14T02:50:31;35.80;27.00
16744;DHT22;71724;-33.900;151.182;2023-12-14T02:52:59;35.90;27.60
16744;DHT22;71724;-33.900;151.182;2023-12-14T02:55:26;36.00;26.70
16744;DHT22;71724;-33.900;151.182;2023-12-14T02:57:54;36.20;25.40
16744;DHT22;71724;-33.900;151.182;2023-12-14T03:00:21;36.30;24.70
16744;DHT22;71724;-33.900;151.182;2023-12-14T03:02:49;36.30;26.90
16744;DHT22;71724;-33.900;151.182;2023-12-14T03:05:16;36.30;25.70
16744;DHT22;71724;-33.900;151.182;2023-12-14T03:07:43;36.30;26.40
16744;DHT22;71724;-33.900;151.182;2023-12-14T03:10:11;36.40;25.50
16744;DHT22;71724;-33.900;151.182;2023-12-14T03:12:38;36.50;25.30
16744;DHT22;71724;-33.900;151.182;2023-12-14T03:15:06;36.50;25.70
16744;DHT22;71724;-33.900;151.182;2023-12-14T03:17:33;36.60;27.30
16744;DHT22;71724;-33.900;151.182;2023-12-14T03:20:01;36.60;26.90
16744;DHT22;71724;-33.900;151.182;2023-12-14T03:22:29;36.80;26.10
16744;DHT22;71724;-33.900;151.182;2023-12-14T03:24:57;36.80;26.60
16744;DHT22;71724;-33.900;151.182;2023-12-14T03:27:24;36.80;26.00
16744;DHT22;71724;-33.900;151.182;2023-12-14T03:29:52;36.80;25.70
16744;DHT22;71724;-33.900;151.182;2023-12-14T03:32:19;36.90;26.40
16744;DHT22;71724;-33.900;151.182;2023-12-14T03:34:46;37.00;26.80
16744;DHT22;71724;-33.900;151.182;2023-12-14T03:37:14;36.90;26.70
16744;DHT22;71724;-33.900;151.182;2023-12-14T03:39:41;36.90;27.30
16744;DHT22;71724;-33.900;151.182;2023-12-14T03:42:08;37.00;27.00
16744;DHT22;71724;-33.900;151.182;2023-12-14T03:44:36;37.00;27.20
16744;DHT22;71724;-33.900;151.182;2023-12-14T03:47:03;37.00;27.30
16744;DHT22;71724;-33.900;151.182;2023-12-14T03:49:31;37.10;27.60
16744;DHT22;71724;-33.900;151.182;2023-12-14T03:51:58;37.00;27.80
16744;DHT22;71724;-33.900;151.182;2023-12-14T03:54:26;37.00;27.10
16744;DHT22;71724;-33.900;151.182;2023-12-14T03:56:53;36.90;27.70
16744;DHT22;71724;-33.900;151.182;2023-12-14T03:59:21;36.90;27.30
16744;DHT22;71724;-33.900;151.182;2023-12-14T04:01:49;36.90;27.50
16744;DHT22;71724;-33.900;151.182;2023-12-14T04:04:16;36.90;27.30
16744;DHT22;71724;-33.900;151.182;2023-12-14T04:06:43;36.90;27.50
16744;DHT22;71724;-33.900;151.182;2023-12-14T04:09:11;36.80;27.80
16744;DHT22;71724;-33.900;151.182;2023-12-14T04:11:38;36.90;27.90
16744;DHT22;71724;-33.900;151.182;2023-12-14T04:14:05;37.00;27.90
16744;DHT22;71724;-33.900;151.182;2023-12-14T04:16:33;37.00;25.90
16744;DHT22;71724;-33.900;151.182;2023-12-14T04:19:00;37.20;26.60
16744;DHT22;71724;-33.900;151.182;2023-12-14T04:21:27;37.30;25.70
16744;DHT22;71724;-33.900;151.182;2023-12-14T04:23:55;37.20;26.90
16744;DHT22;71724;-33.900;151.182;2023-12-14T04:26:22;37.20;26.30
16744;DHT22;71724;-33.900;151.182;2023-12-14T04:28:49;37.10;25.10
16744;DHT22;71724;-33.900;151.182;2023-12-14T04:31:17;37.20;24.70
16744;DHT22;71724;-33.900;151.182;2023-12-14T04:33:44;37.20;24.00
16744;DHT22;71724;-33.900;151.182;2023-12-14T04:36:12;37.20;23.70
16744;DHT22;71724;-33.900;151.182;2023-12-14T04:38:39;37.30;23.60
16744;DHT22;71724;-33.900;151.182;2023-12-14T04:41:06;37.40;23.10
16744;DHT22;71724;-33.900;151.182;2023-12-14T04:43:34;37.40;24.40
16744;DHT22;71724;-33.900;151.182;2023-12-14T04:46:01;37.40;24.00
16744;DHT22;71724;-33.900;151.182;2023-12-14T04:48:30;37.30;24.40
16744;DHT22;71724;-33.900;151.182;2023-12-14T04:50:57;37.30;23.60
16744;DHT22;71724;-33.900;151.182;2023-12-14T04:53:24;37.30;23.80
16744;DHT22;71724;-33.900;151.182;2023-12-14T04:55:52;37.20;23.90
16744;DHT22;71724;-33.900;151.182;2023-12-14T04:58:19;37.20;24.70
16744;DHT22;71724;-33.900;151.182;2023-12-14T05:00:47;37.10;24.60
16744;DHT22;71724;-33.900;151.182;2023-12-14T05:03:14;37.10;23.90
16744;DHT22;71724;-33.900;151.182;2023-12-14T05:05:42;37.20;23.90
16744;DHT22;71724;-33.900;151.182;2023-12-14T05:08:09;37.20;24.80
16744;DHT22;71724;-33.900;151.182;2023-12-14T05:10:36;37.10;23.60
16744;DHT22;71724;-33.900;151.182;2023-12-14T05:13:04;37.20;23.50
16744;DHT22;71724;-33.900;151.182;2023-12-14T05:15:33;37.20;24.80
16744;DHT22;71724;-33.900;151.182;2023-12-14T05:18:01;37.30;23.10
16744;DHT22;71724;-33.900;151.182;2023-12-14T05:20:28;37.30;23.30
16744;DHT22;71724;-33.900;151.182;2023-12-14T05:22:56;37.40;23.20
16744;DHT22;71724;-33.900;151.182;2023-12-14T05:25:23;37.40;24.20
16744;DHT22;71724;-33.900;151.182;2023-12-14T05:27:51;37.40;25.20
16744;DHT22;71724;-33.900;151.182;2023-12-14T05:30:19;37.50;24.20
16744;DHT22;71724;-33.900;151.182;2023-12-14T05:32:49;37.60;23.60
16744;DHT22;71724;-33.900;151.182;2023-12-14T05:35:17;37.70;24.50
16744;DHT22;71724;-33.900;151.182;2023-12-14T05:37:45;37.60;24.80
16744;DHT22;71724;-33.900;151.182;2023-12-14T05:40:12;37.60;23.50
16744;DHT22;71724;-33.900;151.182;2023-12-14T05:42:48;37.80;23.30
16744;DHT22;71724;-33.900;151.182;2023-12-14T05:45:18;37.60;22.00
16744;DHT22;71724;-33.900;151.182;2023-12-14T05:47:46;37.70;22.70
16744;DHT22;71724;-33.900;151.182;2023-12-14T05:50:14;37.70;23.30
16744;DHT22;71724;-33.900;151.182;2023-12-14T05:52:45;37.70;22.10
16744;DHT22;71724;-33.900;151.182;2023-12-14T05:55:12;37.80;23.20
16744;DHT22;71724;-33.900;151.182;2023-12-14T05:57:39;37.80;23.20
16744;DHT22;71724;-33.900;151.182;2023-12-14T06:00:07;37.80;22.70
16744;DHT22;71724;-33.900;151.182;2023-12-14T06:02:35;37.80;22.30
16744;DHT22;71724;-33.900;151.182;2023-12-14T06:05:07;37.80;22.80
16744;DHT22;71724;-33.900;151.182;2023-12-14T06:07:35;37.80;23.80
16744;DHT22;71724;-33.900;151.182;2023-12-14T06:10:02;37.80;23.50
16744;DHT22;71724;-33.900;151.182;2023-12-14T06:12:31;37.80;23.40
16744;DHT22;71724;-33.900;151.182;2023-12-14T06:15:00;37.80;23.50
16744;DHT22;71724;-33.900;151.182;2023-12-14T06:17:28;37.80;23.30
16744;DHT22;71724;-33.900;151.182;2023-12-14T06:19:56;37.80;22.20
16744;DHT22;71724;-33.900;151.182;2023-12-14T06:22:23;37.80;23.00
16744;DHT22;71724;-33.900;151.182;2023-12-14T06:24:50;37.80;22.60
16744;DHT22;71724;-33.900;151.182;2023-12-14T06:27:18;37.80;22.50
16744;DHT22;71724;-33.900;151.182;2023-12-14T06:29:45;37.90;23.10
16744;DHT22;71724;-33.900;151.182;2023-12-14T06:32:13;37.90;23.20
16744;DHT22;71724;-33.900;151.182;2023-12-14T06:34:40;37.90;23.90
16744;DHT22;71724;-33.900;151.182;2023-12-14T06:37:08;37.90;23.50
16744;DHT22;71724;-33.900;151.182;2023-12-14T06:39:35;37.90;24.50
16744;DHT22;71724;-33.900;151.182;2023-12-14T06:42:02;37.90;23.30
16744;DHT22;71724;-33.900;151.182;2023-12-14T06:44:30;37.90;24.10
16744;DHT22;71724;-33.900;151.182;2023-12-14T06:46:58;37.90;23.30
16744;DHT22;71724;-33.900;151.182;2023-12-14T06:49:26;37.90;23.50
16744;DHT22;71724;-33.900;151.182;2023-12-14T06:51:53;37.80;23.00
16744;DHT22;71724;-33.900;151.182;2023-12-14T06:54:21;37.80;23.00
16744;DHT22;71724;-33.900;151.182;2023-12-14T06:56:48;37.80;24.00
16744;DHT22;71724;-33.900;151.182;2023-12-14T06:59:15;37.80;23.50
16744;DHT22;71724;-33.900;151.182;2023-12-14T07:01:43;37.80;24.30
16744;DHT22;71724;-33.900;151.182;2023-12-14T07:04:10;37.80;24.70
16744;DHT22;71724;-33.900;151.182;2023-12-14T07:06:38;37.70;24.40
16744;DHT22;71724;-33.900;151.182;2023-12-14T07:09:05;37.70;24.00
16744;DHT22;71724;-33.900;151.182;2023-12-14T07:11:32;37.70;24.20
16744;DHT22;71724;-33.900;151.182;2023-12-14T07:14:00;37.70;25.40
16744;DHT22;71724;-33.900;151.182;2023-12-14T07:16:27;37.70;24.30
16744;DHT22;71724;-33.900;151.182;2023-12-14T07:18:55;37.70;23.60
16744;DHT22;71724;-33.900;151.182;2023-12-14T07:21:22;37.70;24.50
16744;DHT22;71724;-33.900;151.182;2023-12-14T07:23:49;37.60;24.60
16744;DHT22;71724;-33.900;151.182;2023-12-14T07:26:17;37.60;23.70
16744;DHT22;71724;-33.900;151.182;2023-12-14T07:28:44;37.60;24.80
16744;DHT22;71724;-33.900;151.182;2023-12-14T07:31:12;37.50;24.00
16744;DHT22;71724;-33.900;151.182;2023-12-14T07:33:39;37.60;24.00
16744;DHT22;71724;-33.900;151.182;2023-12-14T07:36:07;37.60;25.50
16744;DHT22;71724;-33.900;151.182;2023-12-14T07:38:34;37.60;24.50
16744;DHT22;71724;-33.900;151.182;2023-12-14T07:41:02;37.60;24.80
16744;DHT22;71724;-33.900;151.182;2023-12-14T07:43:29;37.60;24.10
16744;DHT22;71724;-33.900;151.182;2023-12-14T07:45:58;37.60;24.50
16744;DHT22;71724;-33.900;151.182;2023-12-14T07:48:25;37.60;25.00
16744;DHT22;71724;-33.900;151.182;2023-12-14T07:50:55;37.40;24.40
16744;DHT22;71724;-33.900;151.182;2023-12-14T07:53:22;37.40;24.50
16744;DHT22;71724;-33.900;151.182;2023-12-14T07:55:50;37.40;24.40
16744;DHT22;71724;-33.900;151.182;2023-12-14T07:58:17;37.30;24.80
16744;DHT22;71724;-33.900;151.182;2023-12-14T08:00:45;37.30;25.10
16744;DHT22;71724;-33.900;151.182;2023-12-14T08:03:12;37.20;24.50
16744;DHT22;71724;-33.900;151.182;2023-12-14T08:05:39;37.10;24.90
16744;DHT22;71724;-33.900;151.182;2023-12-14T08:08:07;37.10;24.70
16744;DHT22;71724;-33.900;151.182;2023-12-14T08:10:34;36.90;25.20
16744;DHT22;71724;-33.900;151.182;2023-12-14T08:13:01;36.80;25.80
16744;DHT22;71724;-33.900;151.182;2023-12-14T08:15:30;36.60;25.00
16744;DHT22;71724;-33.900;151.182;2023-12-14T08:17:57;36.40;25.20
16744;DHT22;71724;-33.900;151.182;2023-12-14T08:20:24;36.30;25.00
16744;DHT22;71724;-33.900;151.182;2023-12-14T08:22:52;36.20;25.10
16744;DHT22;71724;-33.900;151.182;2023-12-14T08:25:20;36.00;25.20
16744;DHT22;71724;-33.900;151.182;2023-12-14T08:27:47;36.00;25.60
16744;DHT22;71724;-33.900;151.182;2023-12-14T08:30:14;35.80;26.40
16744;DHT22;71724;-33.900;151.182;2023-12-14T08:32:42;35.70;25.80
16744;DHT22;71724;-33.900;151.182;2023-12-14T08:35:09;35.60;26.80
16744;DHT22;71724;-33.900;151.182;2023-12-14T08:37:37;35.50;26.30
16744;DHT22;71724;-33.900;151.182;2023-12-14T08:40:06;35.40;26.20
16744;DHT22;71724;-33.900;151.182;2023-12-14T08:42:34;35.30;26.10
16744;DHT22;71724;-33.900;151.182;2023-12-14T08:45:02;35.20;26.60
16744;DHT22;71724;-33.900;151.182;2023-12-14T08:47:29;35.10;26.30
16744;DHT22;71724;-33.900;151.182;2023-12-14T08:49:56;35.00;26.80
16744;DHT22;71724;-33.900;151.182;2023-12-14T08:52:25;35.00;27.50
16744;DHT22;71724;-33.900;151.182;2023-12-14T08:54:53;34.90;26.90
16744;DHT22;71724;-33.900;151.182;2023-12-14T08:57:20;34.80;27.90
16744;DHT22;71724;-33.900;151.182;2023-12-14T08:59:48;34.80;27.90
16744;DHT22;71724;-33.900;151.182;2023-12-14T09:02:16;34.70;28.20
16744;DHT22;71724;-33.900;151.182;2023-12-14T09:04:44;34.60;27.70
16744;DHT22;71724;-33.900;151.182;2023-12-14T09:07:11;34.50;29.20
16744;DHT22;71724;-33.900;151.182;2023-12-14T09:09:40;34.40;29.30
16744;DHT22;71724;-33.900;151.182;2023-12-14T09:12:08;34.40;28.40
16744;DHT22;71724;-33.900;151.182;2023-12-14T09:14:38;34.30;29.10
16744;DHT22;71724;-33.900;151.182;2023-12-14T09:17:06;34.20;28.70
16744;DHT22;71724;-33.900;151.182;2023-12-14T09:19:33;34.10;28.70
16744;DHT22;71724;-33.900;151.182;2023-12-14T09:22:02;34.00;28.70
16744;DHT22;71724;-33.900;151.182;2023-12-14T09:24:29;33.90;28.40
16744;DHT22;71724;-33.900;151.182;2023-12-14T09:26:57;33.90;29.30
16744;DHT22;71724;-33.900;151.182;2023-12-14T09:29:24;33.90;29.40
16744;DHT22;71724;-33.900;151.182;2023-12-14T09:31:51;33.80;29.70
16744;DHT22;71724;-33.900;151.182;2023-12-14T09:34:22;33.60;38.80
16744;DHT22;71724;-33.900;151.182;2023-12-14T09:36:49;32.90;44.20
16744;DHT22;71724;-33.900;151.182;2023-12-14T09:39:17;32.30;46.90
16744;DHT22;71724;-33.900;151.182;2023-12-14T09:41:45;31.70;49.00
16744;DHT22;71724;-33.900;151.182;2023-12-14T09:44:13;31.10;50.70
16744;DHT22;71724;-33.900;151.182;2023-12-14T09:46:42;30.80;52.50
16744;DHT22;71724;-33.900;151.182;2023-12-14T09:49:16;30.30;53.70
16744;DHT22;71724;-33.900;151.182;2023-12-14T09:51:45;30.00;55.00
16744;DHT22;71724;-33.900;151.182;2023-12-14T09:54:14;29.70;56.30
16744;DHT22;71724;-33.900;151.182;2023-12-14T09:56:48;29.30;56.90
16744;DHT22;71724;-33.900;151.182;2023-12-14T09:59:16;29.10;58.00
16744;DHT22;71724;-33.900;151.182;2023-12-14T10:01:43;28.80;59.30
16744;DHT22;71724;-33.900;151.182;2023-12-14T10:04:13;28.50;60.20
16744;DHT22;71724;-33.900;151.182;2023-12-14T10:06:43;28.30;61.30
16744;DHT22;71724;-33.900;151.182;2023-12-14T10:09:11;28.00;61.80
16744;DHT22;71724;-33.900;151.182;2023-12-14T10:11:46;27.80;62.60
16744;DHT22;71724;-33.900;151.182;2023-12-14T10:14:20;27.70;63.40
16744;DHT22;71724;-33.900;151.182;2023-12-14T10:16:49;27.60;63.90
16744;DHT22;71724;-33.900;151.182;2023-12-14T10:19:20;27.50;64.60
16744;DHT22;71724;-33.900;151.182;2023-12-14T10:21:49;27.30;65.80
16744;DHT22;71724;-33.900;151.182;2023-12-14T10:24:17;27.00;66.50
16744;DHT22;71724;-33.900;151.182;2023-12-14T10:26:48;26.80;66.90
16744;DHT22;71724;-33.900;151.182;2023-12-14T10:29:18;26.80;67.40
16744;DHT22;71724;-33.900;151.182;2023-12-14T10:31:47;26.70;67.60
16744;DHT22;71724;-33.900;151.182;2023-12-14T10:34:15;26.60;68.30
16744;DHT22;71724;-33.900;151.182;2023-12-14T10:36:45;26.50;68.40
16744;DHT22;71724;-33.900;151.182;2023-12-14T10:39:14;26.60;68.60
16744;DHT22;71724;-33.900;151.182;2023-12-14T10:41:44;26.50;68.80
16744;DHT22;71724;-33.900;151.182;2023-12-14T10:44:17;26.50;69.00
16744;DHT22;71724;-33.900;151.182;2023-12-14T10:46:48;26.40;69.20
16744;DHT22;71724;-33.900;151.182;2023-12-14T10:49:16;26.30;69.40
16744;DHT22;71724;-33.900;151.182;2023-12-14T10:51:43;26.20;69.90
16744;DHT22;71724;-33.900;151.182;2023-12-14T10:54:11;26.10;70.20
16744;DHT22;71724;-33.900;151.182;2023-12-14T10:56:38;26.00;70.40
16744;DHT22;71724;-33.900;151.182;2023-12-14T10:59:07;26.00;70.50
16744;DHT22;71724;-33.900;151.182;2023-12-14T11:01:35;25.90;70.60
16744;DHT22;71724;-33.900;151.182;2023-12-14T11:04:06;25.90;70.70
16744;DHT22;71724;-33.900;151.182;2023-12-14T11:06:40;25.80;71.10
16744;DHT22;71724;-33.900;151.182;2023-12-14T11:09:10;25.70;71.40
16744;DHT22;71724;-33.900;151.182;2023-12-14T11:11:57;25.70;71.50
16744;DHT22;71724;-33.900;151.182;2023-12-14T11:14:27;25.60;71.60
16744;DHT22;71724;-33.900;151.182;2023-12-14T11:17:05;25.60;71.60
16744;DHT22;71724;-33.900;151.182;2023-12-14T11:19:33;25.50;71.70
16744;DHT22;71724;-33.900;151.182;2023-12-14T11:22:10;25.50;72.10
16744;DHT22;71724;-33.900;151.182;2023-12-14T11:24:42;25.40;72.10
16744;DHT22;71724;-33.900;151.182;2023-12-14T11:27:11;25.40;72.20
16744;DHT22;71724;-33.900;151.182;2023-12-14T11:29:39;25.40;72.20
16744;DHT22;71724;-33.900;151.182;2023-12-14T11:32:08;25.40;72.10
16744;DHT22;71724;-33.900;151.182;2023-12-14T11:34:36;25.40;72.10
16744;DHT22;71724;-33.900;151.182;2023-12-14T11:37:06;25.40;72.00
16744;DHT22;71724;-33.900;151.182;2023-12-14T11:39:33;25.40;71.80
16744;DHT22;71724;-33.900;151.182;2023-12-14T11:42:03;25.30;71.90
16744;DHT22;71724;-33.900;151.182;2023-12-14T11:44:31;25.20;72.30
16744;DHT22;71724;-33.900;151.182;2023-12-14T11:46:58;25.10;72.60
16744;DHT22;71724;-33.900;151.182;2023-12-14T11:49:26;25.10;72.60
16744;DHT22;71724;-33.900;151.182;2023-12-14T11:51:55;25.00;72.60
16744;DHT22;71724;-33.900;151.182;2023-12-14T11:54:23;25.10;72.70
16744;DHT22;71724;-33.900;151.182;2023-12-14T11:56:51;25.10;72.50
16744;DHT22;71724;-33.900;151.182;2023-12-14T11:59:18;25.00;72.60
16744;DHT22;71724;-33.900;151.182;2023-12-14T12:02:01;25.00;72.80
16744;DHT22;71724;-33.900;151.182;2023-12-14T12:04:29;24.90;72.90
16744;DHT22;71724;-33.900;151.182;2023-12-14T12:07:17;24.90;73.00
16744;DHT22;71724;-33.900;151.182;2023-12-14T12:09:44;24.90;72.90
16744;DHT22;71724;-33.900;151.182;2023-12-14T12:12:12;24.90;72.80
16744;DHT22;71724;-33.900;151.182;2023-12-14T12:14:41;24.90;72.70
16744;DHT22;71724;-33.900;151.182;2023-12-14T12:17:08;24.80;72.90
16744;DHT22;71724;-33.900;151.182;2023-12-14T12:19:37;24.90;72.70
16744;DHT22;71724;-33.900;151.182;2023-12-14T12:22:04;24.90;72.70
16744;DHT22;71724;-33.900;151.182;2023-12-14T12:24:32;24.80;72.70
16744;DHT22;71724;-33.900;151.182;2023-12-14T12:26:59;24.90;72.70
16744;DHT22;71724;-33.900;151.182;2023-12-14T12:29:27;24.90;72.90
16744;DHT22;71724;-33.900;151.182;2023-12-14T12:31:54;24.90;72.80
16744;DHT22;71724;-33.900;151.182;2023-12-14T12:34:22;24.90;72.70
16744;DHT22;71724;-33.900;151.182;2023-12-14T12:36:50;24.90;72.60
16744;DHT22;71724;-33.900;151.182;2023-12-14T12:39:17;24.80;72.60
16744;DHT22;71724;-33.900;151.182;2023-12-14T12:41:44;24.80;72.60
16744;DHT22;71724;-33.900;151.182;2023-12-14T12:44:12;24.80;72.40
16744;DHT22;71724;-33.900;151.182;2023-12-14T12:46:39;24.80;72.20
16744;DHT22;71724;-33.900;151.182;2023-12-14T12:49:07;24.70;72.20
16744;DHT22;71724;-33.900;151.182;2023-12-14T12:51:35;24.60;72.70
16744;DHT22;71724;-33.900;151.182;2023-12-14T12:54:02;24.50;72.80
16744;DHT22;71724;-33.900;151.182;2023-12-14T12:56:30;24.50;72.90
16744;DHT22;71724;-33.900;151.182;2023-12-14T12:58:57;24.40;72.90
16744;DHT22;71724;-33.900;151.182;2023-12-14T13:01:25;24.40;73.10
16744;DHT22;71724;-33.900;151.182;2023-12-14T13:03:56;24.40;73.20
16744;DHT22;71724;-33.900;151.182;2023-12-14T13:06:25;24.50;73.20
16744;DHT22;71724;-33.900;151.182;2023-12-14T13:08:53;24.50;73.30
16744;DHT22;71724;-33.900;151.182;2023-12-14T13:11:20;24.40;73.50
16744;DHT22;71724;-33.900;151.182;2023-12-14T13:13:48;24.50;73.40
16744;DHT22;71724;-33.900;151.182;2023-12-14T13:16:15;24.50;73.50
16744;DHT22;71724;-33.900;151.182;2023-12-14T13:18:43;24.50;73.50
16744;DHT22;71724;-33.900;151.182;2023-12-14T13:21:12;24.50;73.50
16744;DHT22;71724;-33.900;151.182;2023-12-14T13:23:40;24.50;73.30
16744;DHT22;71724;-33.900;151.182;2023-12-14T13:26:07;24.50;73.50
16744;DHT22;71724;-33.900;151.182;2023-12-14T13:28:35;24.50;73.40
16744;DHT22;71724;-33.900;151.182;2023-12-14T13:31:04;24.60;73.10
16744;DHT22;71724;-33.900;151.182;2023-12-14T13:33:32;24.60;73.00
16744;DHT22;71724;-33.900;151.182;2023-12-14T13:35:59;24.60;72.90
16744;DHT22;71724;-33.900;151.182;2023-12-14T13:38:26;24.50;72.60
16744;DHT22;71724;-33.900;151.182;2023-12-14T13:40:54;24.50;72.70
16744;DHT22;71724;-33.900;151.182;2023-12-14T13:43:21;24.60;72.80
16744;DHT22;71724;-33.900;151.182;2023-12-14T13:45:48;24.60;72.70
16744;DHT22;71724;-33.900;151.182;2023-12-14T13:48:19;24.60;72.80
16744;DHT22;71724;-33.900;151.182;2023-12-14T13:50:47;24.60;72.80
16744;DHT22;71724;-33.900;151.182;2023-12-14T13:53:16;24.50;72.90
16744;DHT22;71724;-33.900;151.182;2023-12-14T13:55:43;24.40;73.10
16744;DHT22;71724;-33.900;151.182;2023-12-14T13:58:11;24.40;73.10
16744;DHT22;71724;-33.900;151.182;2023-12-14T14:00:39;24.30;73.20
16744;DHT22;71724;-33.900;151.182;2023-12-14T14:03:06;24.30;73.50
16744;DHT22;71724;-33.900;151.182;2023-12-14T14:05:34;24.30;73.60
16744;DHT22;71724;-33.900;151.182;2023-12-14T14:08:02;24.30;73.60
16744;DHT22;71724;-33.900;151.182;2023-12-14T14:10:30;24.20;73.80
16744;DHT22;71724;-33.900;151.182;2023-12-14T14:12:57;24.20;73.70
16744;DHT22;71724;-33.900;151.182;2023-12-14T14:15:26;24.20;73.70
16744;DHT22;71724;-33.900;151.182;2023-12-14T14:17:58;24.10;73.80
16744;DHT22;71724;-33.900;151.182;2023-12-14T14:20:27;24.10;74.10
16744;DHT22;71724;-33.900;151.182;2023-12-14T14:22:54;24.10;74.00
16744;DHT22;71724;-33.900;151.182;2023-12-14T14:25:22;24.10;73.90
16744;DHT22;71724;-33.900;151.182;2023-12-14T14:27:50;24.20;74.00
16744;DHT22;71724;-33.900;151.182;2023-12-14T14:30:17;24.20;73.90
16744;DHT22;71724;-33.900;151.182;2023-12-14T14:32:45;24.20;73.80
16744;DHT22;71724;-33.900;151.182;2023-12-14T14:35:12;24.20;73.60
16744;DHT22;71724;-33.900;151.182;2023-12-14T14:37:40;24.20;73.40
16744;DHT22;71724;-33.900;151.182;2023-12-14T14:40:12;24.10;73.40
16744;DHT22;71724;-33.900;151.182;2023-12-14T14:42:43;24.00;73.40
16744;DHT22;71724;-33.900;151.182;2023-12-14T14:45:11;24.00;73.70
16744;DHT22;71724;-33.900;151.182;2023-12-14T14:47:41;24.00;73.80
16744;DHT22;71724;-33.900;151.182;2023-12-14T14:50:09;24.00;73.70
16744;DHT22;71724;-33.900;151.182;2023-12-14T14:52:37;23.90;73.60
16744;DHT22;71724;-33.900;151.182;2023-12-14T14:55:05;23.90;73.40